Chicago Rockford International Airport
KRFD : now visible

Airfield :











YOU CAN JOIN US ON...

 
LOGIN :

Register | Disclaimer

   EN    FR    IT 

 









Legend :    VFR   Marginal VFR   IFR   Intensive IFR   Very Intensive IFR
Visi :
Ceiling :
>= 8 km
>= 3000ft
5 to 8 km
1000 to 3000 ft
1500m to 5 km
500 to 1000 ft
800 to 1500m
200 to 500 ft
< 800m
< 200 ft
Symbols :   Thunderstorms  Fog  Heavy snow  Heavy precipitations  Wind > 20 kt






- Airport Elevation : 742 ft
- IATA code : RFD


KRFD - Chicago Rockford International

CURRENT METAR :
  • 080654Z 18008KT 10SM BKN250 00/M03 A3007 RMK AO2 SLP188 T00001028

EXPIRED METARs :
  • 080554Z 17010KT 10SM BKN250 00/M03 A3010 RMK AO2 SLP199 T00001028 10011 21006 400391056 56017
  • 080454Z 17009KT 10SM BKN250 01/M02 A3011 RMK AO2 SLP204 T00061022

TAF KRFD
Valid from the 08 at 06:00 until the 09 at 06:00 UTC


080531Z 0806/0906 18011KT P6SM BKN250 WS015/21045KT
FM081400 20012G20KT P6SM BKN250
FM082100 20010KT P6SM BKN025
FM090000 18005KT P6SM OVC012



MET'MAP, your aeronautical weather chart ! - Copyright ORBIFLY December 2007 - Disclaimer

ORBIFLY MET'MAP TEAM :

Programming & Development : Alexandra Zaïnal
Concept & original design : Baudouin d'Aumeries
Assistance for programming : Marc-Olivier Méhu
Technical & hardware support : Manuel Goepfert

Contact : metmap@orbifly.com




SOURCES & CREDITS :

   NOAA       Earth
Advisory